Time;durP1;ratioP1;P1;durP2;ratioP2;P2;SDS_P1;SDS_P2;PMS_P1;PMS_P2;Temp;Humidity;BMP_temperature;BMP_pressure;BME280_temperature;BME280_humidity;BME280_pressure;Samples;Min_cycle;Max_cycle;Signal;HPM_P1;HPM_P2
2024/03/15 00:01:37;;;;;;;;;;;;;;;21.91;27.22;97919.88;4965874;28;1902;-82
2024/03/15 00:04:03;;;;;;;;;;;;;;;21.98;27.26;97925.34;4967508;28;1276;-82
2024/03/15 00:06:29;;;;;;;;;;;;;;;21.89;27.28;97939.34;5001413;28;770;-82
2024/03/15 00:08:56;;;;;;;;;;;;;;;21.70;27.20;97933.38;4983440;28;802;-81
2024/03/15 00:11:22;;;;;;;;;;;;;;;21.41;27.64;97935.44;5001184;28;806;-82
2024/03/15 00:13:48;;;;;;;;;;;;;;;21.94;27.24;97931.09;4999568;28;945;-82
2024/03/15 00:16:14;;;;;;;;;;;;;;;22.04;26.96;97930.00;4965288;28;1259;-83
2024/03/15 00:18:39;;;;;;;;;;;;;;;21.69;27.60;97931.81;4963882;28;1239;-82
2024/03/15 00:21:05;;;;;;;;;;;;;;;21.80;27.39;97937.97;5012630;28;2058;-82
2024/03/15 00:23:31;;;;;;;;;;;;;;;21.72;27.51;97930.94;5038633;28;1906;-83
2024/03/15 00:25:58;;;;;;;;;;;;;;;21.75;27.01;97935.69;5039796;28;779;-82
2024/03/15 00:28:23;;;;;;;;;;;;;;;21.65;27.30;97930.31;5007650;28;446297;-82
2024/03/15 00:30:52;;;;;;;;;;;;;;;21.73;27.33;97926.84;5041343;28;767;-82
2024/03/15 00:33:17;;;;;;;;;;;;;;;22.00;27.03;97925.66;5039352;28;782;-82
2024/03/15 00:35:43;;;;;;;;;;;;;;;21.73;27.51;97926.84;5040780;28;768;-82
2024/03/15 00:38:09;;;;;;;;;;;;;;;21.91;27.07;97922.69;5040086;28;833;-82
2024/03/15 00:40:34;;;;;;;;;;;;;;;21.90;27.36;97929.59;5040447;28;906;-82
2024/03/15 00:43:00;;;;;;;;;;;;;;;21.65;27.41;97922.63;5039895;28;1989;-82
2024/03/15 00:45:26;;;;;;;;;;;;;;;21.50;27.64;97929.91;5024214;28;928;-82
2024/03/15 00:47:51;;;;;;;;;;;;;;;21.85;27.10;97923.25;5023305;28;827;-82
2024/03/15 00:50:17;;;;;;;;;;;;;;;22.01;27.03;97921.59;5023553;28;787;-81
2024/03/15 00:52:43;;;;;;;;;;;;;;;21.87;27.09;97924.88;5000224;28;883;-82
2024/03/15 00:55:09;;;;;;;;;;;;;;;21.77;27.44;97921.88;4999963;28;830;-82
2024/03/15 00:57:34;;;;;;;;;;;;;;;21.81;27.35;97928.25;5000798;28;826;-82
2024/03/15 01:00:01;;;;;;;;;;;;;;;21.49;27.74;97933.97;5000324;28;862;-82
2024/03/15 01:02:27;;;;;;;;;;;;;;;21.50;27.26;97932.75;4985171;28;1902;-82
2024/03/15 01:04:52;;;;;;;;;;;;;;;21.35;27.53;97929.53;4999519;28;782;-82
2024/03/15 01:07:20;;;;;;;;;;;;;;;22.00;27.26;97934.16;4984614;28;783;-82
2024/03/15 01:09:45;;;;;;;;;;;;;;;21.99;27.10;97932.59;4999508;28;802;-81
2024/03/15 01:12:12;;;;;;;;;;;;;;;22.10;27.02;97939.56;4984564;28;819;-82
2024/03/15 01:14:37;;;;;;;;;;;;;;;22.01;27.12;97932.91;4967549;28;1476;-82
2024/03/15 01:17:03;;;;;;;;;;;;;;;21.71;27.27;97937.84;4986014;28;1246;-82
2024/03/15 01:19:32;;;;;;;;;;;;;;;21.46;27.47;97937.72;5002881;28;862;-82
2024/03/15 01:21:58;;;;;;;;;;;;;;;21.26;27.64;97935.78;5003722;28;1902;-82
2024/03/15 01:24:23;;;;;;;;;;;;;;;21.87;27.12;97925.66;5036676;28;899;-82
2024/03/15 01:26:49;;;;;;;;;;;;;;;21.79;27.41;97929.91;5040732;28;1266;-81
2024/03/15 01:29:15;;;;;;;;;;;;;;;21.79;27.50;97933.53;5018448;28;813;-82
2024/03/15 01:31:40;;;;;;;;;;;;;;;21.81;27.36;97928.25;5003347;28;826;-82
2024/03/15 01:34:06;;;;;;;;;;;;;;;21.81;26.91;97927.41;5019036;28;776;-82
2024/03/15 01:36:32;;;;;;;;;;;;;;;21.58;27.07;97920.78;5003558;28;740;-82
2024/03/15 01:38:57;;;;;;;;;;;;;;;21.37;27.80;97920.56;5002596;28;814;-81
2024/03/15 01:41:23;;;;;;;;;;;;;;;21.90;27.15;97923.94;5003880;28;846;-82
2024/03/15 01:43:48;;;;;;;;;;;;;;;21.85;27.30;97928.91;5001831;28;1902;-82
2024/03/15 01:46:14;;;;;;;;;;;;;;;21.92;27.15;97927.94;5004130;28;1061;-82
2024/03/15 01:48:40;;;;;;;;;;;;;;;21.97;26.95;97923.75;5001784;28;811;-82
2024/03/15 01:51:06;;;;;;;;;;;;;;;21.73;27.01;97921.19;5020576;28;771;-83
2024/03/15 01:53:32;;;;;;;;;;;;;;;21.59;26.99;97928.03;4985745;28;1100;-82
2024/03/15 01:55:57;;;;;;;;;;;;;;;21.43;27.41;97922.41;5020064;28;835;-82
2024/03/15 01:58:24;;;;;;;;;;;;;;;21.81;27.50;97921.75;5001873;28;926;-82
2024/03/15 02:00:50;;;;;;;;;;;;;;;21.88;27.09;97920.78;5030647;28;909;-81
2024/03/15 02:03:16;;;;;;;;;;;;;;;21.74;27.26;97922.75;5040316;28;1982;-82
2024/03/15 02:05:43;;;;;;;;;;;;;;;21.96;27.00;97922.94;5039910;28;775;-82
2024/03/15 02:08:08;;;;;;;;;;;;;;;21.89;27.13;97919.53;5022722;28;1237;-82
2024/03/15 02:10:34;;;;;;;;;;;;;;;21.58;27.29;97920.00;5023837;28;715;-81
2024/03/15 02:13:01;;;;;;;;;;;;;;;21.73;26.80;97926.06;5039693;28;779;-82
2024/03/15 02:15:27;;;;;;;;;;;;;;;21.76;27.25;97925.13;5041084;28;731;-82
2024/03/15 02:17:53;;;;;;;;;;;;;;;21.77;27.11;97921.88;5039449;28;839;-82
2024/03/15 02:20:21;;;;;;;;;;;;;;;21.66;27.51;97920.56;5040530;28;727;-82
2024/03/15 02:22:47;;;;;;;;;;;;;;;21.68;27.50;97927.41;5038968;28;1906;-82
2024/03/15 02:25:13;;;;;;;;;;;;;;;21.42;27.42;97923.66;5002254;28;1191;-82
2024/03/15 02:27:39;;;;;;;;;;;;;;;21.19;27.78;97916.16;5002715;28;1221;-82
2024/03/15 02:30:06;;;;;;;;;;;;;;;21.60;27.42;97926.00;5001796;28;945;-83
2024/03/15 02:32:32;;;;;;;;;;;;;;;21.82;27.14;97924.16;4986315;28;828;-82
2024/03/15 02:34:58;;;;;;;;;;;;;;;21.95;26.82;97926.22;5001933;28;767;-82
2024/03/15 02:37:24;;;;;;;;;;;;;;;21.95;26.73;97929.84;5002202;28;755;-82
2024/03/15 02:39:51;;;;;;;;;;;;;;;21.81;27.21;97922.56;5000771;28;788;-82
2024/03/15 02:42:17;;;;;;;;;;;;;;;21.61;27.16;97924.78;4983165;28;1902;-81
2024/03/15 02:44:43;;;;;;;;;;;;;;;21.61;27.22;97936.09;4998145;28;988;-82
2024/03/15 02:47:09;;;;;;;;;;;;;;;21.39;27.39;97935.06;4999110;28;720;-82
2024/03/15 02:49:36;;;;;;;;;;;;;;;21.87;26.93;97934.16;4997593;28;732;-82
2024/03/15 02:52:02;;;;;;;;;;;;;;;21.89;26.98;97939.34;4998958;28;904;-82
2024/03/15 02:54:28;;;;;;;;;;;;;;;21.84;27.08;97938.66;4981777;28;763;-82
2024/03/15 02:56:54;;;;;;;;;;;;;;;21.70;27.24;97933.38;5018119;28;941;-83
2024/03/15 02:59:20;;;;;;;;;;;;;;;21.72;27.09;97930.94;5037779;28;790;-81
2024/03/15 03:01:46;;;;;;;;;;;;;;;21.47;27.26;97933.66;4989683;28;1906;-82
2024/03/15 03:04:12;;;;;;;;;;;;;;;21.31;27.42;97923.16;5004809;28;1107;-82
2024/03/15 03:06:37;;;;;;;;;;;;;;;21.70;27.19;97922.06;5021847;28;926;-82
2024/03/15 03:09:06;;;;;;;;;;;;;;;21.68;27.39;97924.56;5020905;28;899;-82
2024/03/15 03:11:31;;;;;;;;;;;;;;;21.75;27.25;97913.03;5038615;28;831;-81
2024/03/15 03:13:58;;;;;;;;;;;;;;;21.81;27.16;97921.75;5034333;28;773;-82
2024/03/15 03:16:23;;;;;;;;;;;;;;;21.71;27.06;97923.69;4985988;28;1213;-82
2024/03/15 03:18:49;;;;;;;;;;;;;;;21.53;27.25;97918.50;4984862;28;1526;-82
2024/03/15 03:21:15;;;;;;;;;;;;;;;21.38;27.49;97922.94;4979558;28;886;-82
2024/03/15 03:23:40;;;;;;;;;;;;;;;21.83;27.20;97919.28;4945652;28;1903;-80
2024/03/15 03:26:07;;;;;;;;;;;;;;;21.95;26.97;97920.56;4964146;28;815;-82
2024/03/15 03:28:32;;;;;;;;;;;;;;;22.01;26.69;97918.75;4945521;28;1103;-82
2024/03/15 03:30:58;;;;;;;;;;;;;;;21.91;26.91;97920.66;4963523;28;779;-81
2024/03/15 03:33:25;;;;;;;;;;;;;;;21.85;26.92;97928.91;4977938;28;724;-82
2024/03/15 03:35:50;;;;;;;;;;;;;;;21.59;27.25;97919.53;4931744;28;1145;-82
2024/03/15 03:38:16;;;;;;;;;;;;;;;21.42;27.45;97928.53;4962243;28;756;-82
2024/03/15 03:40:42;;;;;;;;;;;;;;;21.75;26.89;97930.00;4947397;28;1006;-82
2024/03/15 03:43:09;;;;;;;;;;;;;;;21.98;26.93;97931.00;4962442;28;1993;-82
2024/03/15 03:45:36;;;;;;;;;;;;;;;22.04;26.50;97952.66;4946885;28;732;-82
2024/03/15 03:48:01;;;;;;;;;;;;;;;21.89;26.96;97945.03;4961209;28;1168;-82
2024/03/15 03:50:27;;;;;;;;;;;;;;;21.80;26.82;97943.63;4933706;28;987;-82
2024/03/15 03:52:52;;;;;;;;;;;;;;;21.84;26.50;97950.00;5008688;28;761;-82
2024/03/15 03:55:18;;;;;;;;;;;;;;;21.70;26.62;97950.38;5038212;28;1008;-82
2024/03/15 03:57:46;;;;;;;;;;;;;;;21.98;26.95;97959.34;5022731;28;1289;-81
2024/03/15 04:00:15;;;;;;;;;;;;;;;21.90;26.73;97957.94;5021981;28;783;-82
2024/03/15 04:02:43;;;;;;;;;;;;;;;21.90;27.04;97957.94;5038792;28;1914;-82
2024/03/15 04:05:09;;;;;;;;;;;;;;;22.01;26.56;97958.41;5021555;28;766;-82
2024/03/15 04:07:35;;;;;;;;;;;;;;;21.74;26.79;97955.97;5024408;28;1147;-81
2024/03/15 04:10:00;;;;;;;;;;;;;;;21.66;26.77;97961.03;5042272;28;802;-82
2024/03/15 04:12:27;;;;;;;;;;;;;;;21.05;27.96;97964.63;5004782;28;1187;-81
2024/03/15 04:14:55;;;;;;;;;;;;;;;21.89;27.09;97962.03;4987962;28;813;-82
2024/03/15 04:17:23;;;;;;;;;;;;;;;22.09;26.55;97971.16;5021631;28;948;-82
2024/03/15 04:19:49;;;;;;;;;;;;;;;21.79;26.82;97973.19;5004289;28;696;-82
2024/03/15 04:22:14;;;;;;;;;;;;;;;22.03;26.63;97972.94;4987822;28;1906;-82
2024/03/15 04:24:40;;;;;;;;;;;;;;;21.78;26.84;97974.44;5019898;28;798;-82
2024/03/15 04:27:08;;;;;;;;;;;;;;;21.27;27.37;97974.16;5020951;28;1210;-81
2024/03/15 04:29:37;;;;;;;;;;;;;;;21.25;27.43;97970.97;5003461;28;1204;-82
2024/03/15 04:32:02;;;;;;;;;;;;;;;22.02;26.50;97979.84;5004441;28;1132;-82
2024/03/15 04:34:30;;;;;;;;;;;;;;;22.02;26.87;97977.00;5003852;28;811;-82
2024/03/15 04:36:57;;;;;;;;;;;;;;;21.75;27.16;97980.19;4988198;28;996;-81
2024/03/15 04:39:22;;;;;;;;;;;;;;;21.83;26.62;97985.22;5003404;28;736;-82
2024/03/15 04:41:48;;;;;;;;;;;;;;;21.54;27.10;97992.91;5004386;28;1973;-81
2024/03/15 04:44:13;;;;;;;;;;;;;;;21.48;27.09;97994.69;5033716;28;940;-82
2024/03/15 04:46:39;;;;;;;;;;;;;;;21.92;26.83;98000.78;5024748;28;763;-82
2024/03/15 04:49:05;;;;;;;;;;;;;;;22.02;26.70;97999.66;5024587;28;1284;-82
2024/03/15 04:51:30;;;;;;;;;;;;;;;21.90;26.77;98006.88;5025872;28;719;-82
2024/03/15 04:53:56;;;;;;;;;;;;;;;21.94;26.63;98012.47;5041324;28;854;-82
2024/03/15 04:56:21;;;;;;;;;;;;;;;22.04;26.70;98002.88;5042028;28;954;-82
2024/03/15 04:58:47;;;;;;;;;;;;;;;21.97;26.59;98014.41;5040729;28;1064;-82
2024/03/15 05:01:13;;;;;;;;;;;;;;;21.59;27.04;98003.69;5025039;28;917;-82
2024/03/15 05:03:38;;;;;;;;;;;;;;;21.82;26.68;98011.97;5040354;28;1918;-82
2024/03/15 05:06:04;;;;;;;;;;;;;;;21.54;27.08;98009.88;5043824;28;958;-82
2024/03/15 05:08:30;;;;;;;;;;;;;;;21.58;27.34;97999.25;5040940;28;863;-82
2024/03/15 05:10:56;;;;;;;;;;;;;;;21.37;27.57;98005.50;5042010;28;791;-82
2024/03/15 05:13:22;;;;;;;;;;;;;;;21.54;27.33;98001.38;5057128;28;767;-82
2024/03/15 05:15:49;;;;;;;;;;;;;;;21.45;27.52;98006.88;5025367;28;1213;-82
2024/03/15 05:18:14;;;;;;;;;;;;;;;21.71;27.13;98005.81;5056313;28;751;-82
2024/03/15 05:20:41;;;;;;;;;;;;;;;21.97;26.68;98011.59;5041657;28;908;-82
2024/03/15 05:23:07;;;;;;;;;;;;;;;21.98;26.42;98004.66;5023655;28;1910;-82
2024/03/15 05:25:34;;;;;;;;;;;;;;;21.95;26.83;98011.22;5042381;28;740;-81
2024/03/15 05:28:00;;;;;;;;;;;;;;;21.99;26.72;98020.41;5040080;28;1083;-82
2024/03/15 05:30:26;;;;;;;;;;;;;;;21.91;26.75;98013.34;5042036;28;787;-82
2024/03/15 05:32:52;;;;;;;;;;;;;;;21.65;26.92;98021.72;5024573;28;1183;-82
2024/03/15 05:35:21;;;;;;;;;;;;;;;21.35;27.38;98024.94;5039942;28;730;-81
2024/03/15 05:37:47;;;;;;;;;;;;;;;21.91;26.77;98016.97;5040545;28;1103;-81
2024/03/15 05:40:13;;;;;;;;;;;;;;;21.97;26.65;98023.69;5034290;28;1123;-81
2024/03/15 05:42:38;;;;;;;;;;;;;;;21.92;26.93;98023.47;5012466;28;1981;-81
2024/03/15 05:45:04;;;;;;;;;;;;;;;22.00;26.56;98024.84;5030350;28;1162;-81
2024/03/15 05:47:30;;;;;;;;;;;;;;;21.84;26.82;98017.97;5032094;28;1306;-82
2024/03/15 05:49:56;;;;;;;;;;;;;;;21.30;27.27;98024.25;5024287;28;1281;-81
2024/03/15 05:52:21;;;;;;;;;;;;;;;21.44;26.96;98023.06;5023789;28;904;-81
2024/03/15 05:54:47;;;;;;;;;;;;;;;21.72;27.00;98020.75;5022655;28;853;-82
2024/03/15 05:57:13;;;;;;;;;;;;;;;21.90;26.89;98020.25;5000032;28;893;-81
2024/03/15 05:59:38;;;;;;;;;;;;;;;21.96;26.80;98024.13;4983502;28;873;-82
2024/03/15 06:02:04;;;;;;;;;;;;;;;22.03;26.49;98026.78;4983560;28;1919;-81
2024/03/15 06:04:32;;;;;;;;;;;;;;;21.63;27.05;98029.88;4999427;28;763;-81
2024/03/15 06:06:59;;;;;;;;;;;;;;;21.29;27.33;98033.91;4983772;28;835;-81
2024/03/15 06:09:24;;;;;;;;;;;;;;;21.42;27.14;98031.22;4982766;28;1044;-82
2024/03/15 06:11:51;;;;;;;;;;;;;;;21.81;26.81;98030.22;4964208;28;833;-81
2024/03/15 06:14:17;;;;;;;;;;;;;;;21.76;26.95;98033.59;4964483;28;1239;-81
2024/03/15 06:16:43;;;;;;;;;;;;;;;22.04;26.40;98040.50;4948583;28;1113;-81
2024/03/15 06:19:09;;;;;;;;;;;;;;;21.75;26.91;98028.34;4930955;29;1269;-81
2024/03/15 06:21:35;;;;;;;;;;;;;;;21.55;27.06;98034.13;4950037;29;1338;-81
2024/03/15 06:24:00;;;;;;;;;;;;;;;21.48;27.30;98046.44;4949599;29;1980;-81
2024/03/15 06:26:26;;;;;;;;;;;;;;;21.61;26.92;98042.91;4951216;29;1307;-80
2024/03/15 06:28:53;;;;;;;;;;;;;;;21.55;27.30;98039.78;4930487;28;1343;-81
2024/03/15 06:31:19;;;;;;;;;;;;;;;21.61;27.04;98042.91;4936123;29;1299;-81
2024/03/15 06:33:48;;;;;;;;;;;;;;;21.49;27.47;98047.22;4937116;29;1345;-82
2024/03/15 06:36:18;;;;;;;;;;;;;;;21.40;27.56;98044.22;4934438;29;1236;-82
2024/03/15 06:43:58;;;;;;;;;;;;;;;21.72;27.05;98038.53;4953552;28;1887;-82
2024/03/15 06:46:30;;;;;;;;;;;;;;;21.71;27.33;98041.78;4953398;29;1251;-82
2024/03/15 06:49:02;;;;;;;;;;;;;;;21.89;26.71;98041.34;4954678;28;1251;-82
2024/03/15 06:54:14;;;;;;;;;;;;;;;21.84;26.89;98032.13;4967826;28;1327;-82
2024/03/15 06:56:41;;;;;;;;;;;;;;;21.72;27.18;98027.22;4984647;28;1283;-82
2024/03/15 06:59:09;;;;;;;;;;;;;;;21.52;27.42;98035.03;4994510;28;1239;-82
2024/03/15 07:01:35;;;;;;;;;;;;;;;21.44;27.49;98039.25;5033199;28;1187;-83
2024/03/15 07:04:01;;;;;;;;;;;;;;;21.69;27.16;98028.09;5061330;28;1921;-82
2024/03/15 07:06:27;;;;;;;;;;;;;;;21.88;26.90;98025.59;5014777;28;1218;-82
2024/03/15 07:08:57;;;;;;;;;;;;;;;22.00;26.52;98036.97;5003350;28;1271;-83
2024/03/15 07:11:29;;;;;;;;;;;;;;;22.00;26.50;98036.16;5013706;28;1226;-83
2024/03/15 07:13:58;;;;;;;;;;;;;;;21.75;26.71;98031.97;5029819;28;1220;-80
2024/03/15 07:16:25;;;;;;;;;;;;;;;21.45;27.41;98046.50;5048112;28;1217;-82
2024/03/15 07:18:50;;;;;;;;;;;;;;;21.60;27.29;98039.25;5038149;28;965;-81
2024/03/15 07:21:16;;;;;;;;;;;;;;;21.80;27.14;98037.09;5039950;28;795;-81
2024/03/15 07:23:42;;;;;;;;;;;;;;;21.91;27.15;98041.66;5038292;28;1918;-82
2024/03/15 07:26:10;;;;;;;;;;;;;;;22.00;26.69;98042.63;5039636;28;802;-80
2024/03/15 07:28:38;;;;;;;;;;;;;;;21.77;26.91;98031.53;5022274;28;1073;-81
2024/03/15 07:31:04;;;;;;;;;;;;;;;21.74;26.79;98030.38;5024333;28;828;-81
2024/03/15 07:33:30;;;;;;;;;;;;;;;21.33;27.51;98033.88;5022534;28;712;-81
2024/03/15 07:36:01;;;;;;;;;;;;;;;21.45;27.49;98024.69;5039821;28;758;-82
2024/03/15 07:38:27;;;;;;;;;;;;;;;21.88;27.15;98034.88;5039299;28;711;-81
2024/03/15 07:40:52;;;;;;;;;;;;;;;21.73;27.15;98040.13;5041741;28;873;-81
2024/03/15 07:43:18;;;;;;;;;;;;;;;21.70;27.39;98029.69;5043440;28;1906;-81
2024/03/15 07:45:43;;;;;;;;;;;;;;;21.77;27.27;98040.84;5042952;28;691;-81
2024/03/15 07:48:09;;;;;;;;;;;;;;;21.63;27.32;98029.88;5042476;28;1288;-81
2024/03/15 07:50:36;;;;;;;;;;;;;;;21.50;27.66;98026.16;5044887;28;854;-81
2024/03/15 07:53:03;;;;;;;;;;;;;;;21.11;28.28;98033.56;5042567;28;1084;-81
2024/03/15 07:55:28;;;;;;;;;;;;;;;21.94;27.04;98026.63;5010385;28;1134;-81
2024/03/15 07:57:54;;;;;;;;;;;;;;;21.54;27.75;98038.19;5024673;28;1190;-81
2024/03/15 08:00:20;;;;;;;;;;;;;;;21.76;27.39;98033.59;5041008;28;981;-81
2024/03/15 08:02:46;;;;;;;;;;;;;;;21.31;27.75;98039.19;5041580;28;1980;-80
2024/03/15 08:05:13;;;;;;;;;;;;;;;21.57;27.26;98034.50;5041147;28;972;-80
2024/03/15 08:07:41;;;;;;;;;;;;;;;21.30;27.60;98035.56;5025216;28;966;-81
2024/03/15 08:10:10;;;;;;;;;;;;;;;21.70;27.22;98041.00;5024677;28;1233;-80
2024/03/15 08:12:37;;;;;;;;;;;;;;;21.70;27.39;98032.50;5025758;28;1153;-80
2024/03/15 08:15:04;;;;;;;;;;;;;;;21.95;26.87;98039.53;4985473;28;1155;-81
2024/03/15 08:17:30;;;;;;;;;;;;;;;21.91;26.85;98033.19;4969999;28;1205;-80
2024/03/15 08:19:55;;;;;;;;;;;;;;;21.35;27.72;98042.72;5001454;28;995;-81
2024/03/15 08:22:21;;;;;;;;;;;;;;;21.41;27.65;98040.97;5002639;28;1961;-81
2024/03/15 08:24:47;;;;;;;;;;;;;;;21.92;27.20;98031.97;5001307;28;981;-80
2024/03/15 08:27:12;;;;;;;;;;;;;;;21.94;27.03;98037.97;5002356;28;1061;-81
2024/03/15 08:29:39;;;;;;;;;;;;;;;21.94;26.97;98043.63;5001048;28;883;-81
2024/03/15 08:32:06;;;;;;;;;;;;;;;22.07;26.71;98044.47;4985947;28;819;-81
2024/03/15 08:34:34;;;;;;;;;;;;;;;21.54;27.27;98043.84;4968809;28;1112;-80
2024/03/15 08:36:59;;;;;;;;;;;;;;;21.70;27.15;98041.00;4985871;28;1267;-81
2024/03/15 08:39:25;;;;;;;;;;;;;;;21.31;27.63;98042.81;5001195;28;999;-79
2024/03/15 08:41:51;;;;;;;;;;;;;;;22.00;26.89;98041.84;5001423;28;709;-79
2024/03/15 08:44:16;;;;;;;;;;;;;;;21.84;27.08;98039.84;5001090;28;1906;-81
2024/03/15 08:46:43;;;;;;;;;;;;;;;21.97;27.15;98045.56;5019255;28;854;-80
2024/03/15 08:49:10;;;;;;;;;;;;;;;22.04;26.73;98046.16;5021732;28;865;-81
2024/03/15 08:51:36;;;;;;;;;;;;;;;21.69;27.29;98039.41;5022661;28;779;-80
2024/03/15 08:54:04;;;;;;;;;;;;;;;21.27;27.74;98042.06;5022723;28;744;-81
2024/03/15 08:56:30;;;;;;;;;;;;;;;21.33;27.75;98043.16;4989981;28;865;-81
2024/03/15 08:58:58;;;;;;;;;;;;;;;21.97;26.88;98037.06;5021469;28;872;-81
2024/03/15 09:01:32;;;;;;;;;;;;;;;22.02;26.91;98039.34;5006015;28;836;-81
2024/03/15 09:03:59;;;;;;;;;;;;;;;22.08;26.99;98037.56;5021697;28;1971;-81
2024/03/15 09:06:25;;;;;;;;;;;;;;;21.98;26.99;98033.00;5006691;28;760;-81
2024/03/15 09:08:54;;;;;;;;;;;;;;;21.52;27.65;98032.97;5022097;28;821;-81
2024/03/15 09:11:20;;;;;;;;;;;;;;;21.51;27.73;98036.28;5022217;28;759;-80
2024/03/15 09:13:46;;;;;;;;;;;;;;;21.35;28.23;98036.25;5037304;28;1064;-80
2024/03/15 09:16:13;;;;;;;;;;;;;;;21.70;27.56;98024.00;5021899;28;877;-81
2024/03/15 09:18:39;;;;;;;;;;;;;;;22.14;26.98;98030.13;5020963;28;985;-81
2024/03/15 09:21:06;;;;;;;;;;;;;;;22.09;27.00;98030.66;5023265;28;846;-81
2024/03/15 09:23:32;;;;;;;;;;;;;;;21.90;26.95;98031.59;5053689;28;1981;-81
2024/03/15 09:25:58;;;;;;;;;;;;;;;21.35;27.89;98030.59;5037855;28;1222;-80
2024/03/15 09:28:26;;;;;;;;;;;;;;;21.19;28.22;98034.19;5038525;28;1147;-80
2024/03/15 09:30:54;;;;;;;;;;;;;;;21.31;28.30;98025.84;5008079;28;1103;-81
2024/03/15 09:33:23;;;;;;;;;;;;;;;21.75;27.32;98020.63;5038915;28;946;-81
2024/03/15 09:35:49;;;;;;;;;;;;;;;21.93;27.21;98019.38;5007934;28;775;-80
2024/03/15 09:38:14;;;;;;;;;;;;;;;22.11;26.90;98025.34;5038937;28;1026;-81
2024/03/15 09:40:40;;;;;;;;;;;;;;;21.69;27.32;98022.44;5023376;28;814;-80
2024/03/15 09:43:13;;;;;;;;;;;;;;;21.68;27.25;98011.56;5006049;28;1973;-81
2024/03/15 09:45:38;;;;;;;;;;;;;;;21.90;27.04;98017.44;5006642;28;874;-80
2024/03/15 09:48:04;;;;;;;;;;;;;;;21.94;27.46;98020.97;5021899;28;802;-81
2024/03/15 09:50:31;;;;;;;;;;;;;;;21.88;27.27;98022.75;5006509;28;740;-81
2024/03/15 09:52:56;;;;;;;;;;;;;;;21.70;27.41;98015.50;5005840;28;1129;-81
2024/03/15 09:55:22;;;;;;;;;;;;;;;21.83;27.24;98019.22;5018824;28;935;-82
2024/03/15 09:57:51;;;;;;;;;;;;;;;21.43;27.82;98015.81;5002175;28;1108;-81
2024/03/15 10:00:17;;;;;;;;;;;;;;;21.50;27.42;98024.16;4989005;28;1255;-81
2024/03/15 10:02:44;;;;;;;;;;;;;;;21.27;28.14;98025.09;5019557;28;1910;-82
2024/03/15 10:05:10;;;;;;;;;;;;;;;21.61;27.63;98015.38;5001038;28;1233;-81
2024/03/15 10:07:36;;;;;;;;;;;;;;;21.88;27.30;98019.91;4986368;28;1217;-81
2024/03/15 10:10:05;;;;;;;;;;;;;;;21.96;27.18;98024.13;5018040;28;863;-81
2024/03/15 10:12:33;;;;;;;;;;;;;;;21.52;27.81;98020.88;5001947;28;864;-81
2024/03/15 10:14:59;;;;;;;;;;;;;;;21.02;28.54;98033.38;5018057;28;1021;-81
2024/03/15 10:17:25;;;;;;;;;;;;;;;21.42;27.96;98027.59;5018696;28;969;-81
2024/03/15 10:19:50;;;;;;;;;;;;;;;21.91;27.15;98028.31;5018321;28;892;-81
2024/03/15 10:22:16;;;;;;;;;;;;;;;21.93;27.24;98019.38;5001630;28;1906;-81
2024/03/15 10:24:42;;;;;;;;;;;;;;;21.92;27.17;98023.47;5017438;28;802;-80
2024/03/15 10:27:12;;;;;;;;;;;;;;;21.78;27.21;98025.41;5020431;28;1022;-81
2024/03/15 10:29:38;;;;;;;;;;;;;;;21.18;28.20;98016.41;5019419;28;752;-81
2024/03/15 10:32:04;;;;;;;;;;;;;;;21.38;27.77;98035.38;5021032;28;747;-81
2024/03/15 10:34:30;;;;;;;;;;;;;;;21.61;27.71;98026.69;5018152;28;1024;-81
2024/03/15 10:36:55;;;;;;;;;;;;;;;21.80;27.50;98022.94;4982343;28;925;-80
2024/03/15 10:39:23;;;;;;;;;;;;;;;21.94;27.07;98027.41;4997471;28;988;-81
2024/03/15 10:41:49;;;;;;;;;;;;;;;21.98;27.02;98021.66;4998925;28;901;-80
2024/03/15 10:44:15;;;;;;;;;;;;;;;21.75;27.38;98019.84;4982065;28;1981;-81
2024/03/15 10:46:41;;;;;;;;;;;;;;;21.52;27.52;98018.03;4982488;28;908;-81
2024/03/15 10:49:08;;;;;;;;;;;;;;;21.58;27.64;98013.44;4998174;28;833;-81
2024/03/15 10:51:36;;;;;;;;;;;;;;;22.07;26.85;98018.97;4982672;28;971;-81
2024/03/15 10:54:02;;;;;;;;;;;;;;;21.74;27.50;98019.06;4982492;28;1048;-80
2024/03/15 10:56:27;;;;;;;;;;;;;;;21.85;27.46;98025.22;4966593;28;1191;-81
2024/03/15 10:58:53;;;;;;;;;;;;;;;21.68;27.48;98020.84;4949979;28;1227;-81
2024/03/15 11:01:21;;;;;;;;;;;;;;;21.61;27.60;98009.72;4963491;28;1093;-81
2024/03/15 11:03:47;;;;;;;;;;;;;;;21.61;27.69;98021.03;4977926;28;1967;-80
2024/03/15 11:06:12;;;;;;;;;;;;;;;22.03;27.33;98018.28;4963258;28;1073;-80
2024/03/15 11:08:39;;;;;;;;;;;;;;;22.04;27.14;98025.53;4977582;28;937;-80
2024/03/15 11:11:05;;;;;;;;;;;;;;;21.97;27.29;98022.91;4983256;28;819;-80
2024/03/15 11:13:36;;;;;;;;;;;;;;;22.06;27.03;98020.22;4958260;29;930;-80
2024/03/15 11:16:18;;;;;;;;;;;;;;;21.46;28.05;98025.47;4961807;28;973;-79
2024/03/15 11:18:44;;;;;;;;;;;;;;;21.16;28.43;98027.41;4962642;29;959;-81
2024/03/15 11:21:19;;;;;;;;;;;;;;;21.62;27.96;98024.66;4963566;29;913;-81
2024/03/15 11:23:45;;;;;;;;;;;;;;;21.83;27.69;98022.03;4978160;28;1907;-81
2024/03/15 11:26:11;;;;;;;;;;;;;;;21.78;27.62;98022.59;4963581;29;896;-81
2024/03/15 11:28:38;;;;;;;;;;;;;;;21.87;27.40;98015.50;4961812;29;1274;-81
2024/03/15 11:31:04;;;;;;;;;;;;;;;21.56;27.80;98024.41;4963698;29;972;-81
2024/03/15 11:33:31;;;;;;;;;;;;;;;21.56;27.66;98024.41;4965383;28;875;-81
2024/03/15 11:35:57;;;;;;;;;;;;;;;21.23;28.46;98023.59;4950814;28;919;-81
2024/03/15 11:38:22;;;;;;;;;;;;;;;21.78;27.75;98019.75;4964862;28;975;-82
2024/03/15 11:40:51;;;;;;;;;;;;;;;21.94;27.41;98016.09;4947116;29;883;-81
2024/03/15 11:43:16;;;;;;;;;;;;;;;21.99;27.29;98020.41;4962064;28;1902;-81
2024/03/15 11:45:43;;;;;;;;;;;;;;;21.83;27.71;98015.59;4981771;28;850;-82
2024/03/15 11:48:19;;;;;;;;;;;;;;;21.77;27.38;98009.69;4981717;28;930;-81
2024/03/15 11:50:45;;;;;;;;;;;;;;;21.68;27.45;98015.19;4982703;28;843;-81
2024/03/15 11:53:12;;;;;;;;;;;;;;;21.40;27.89;98015.91;4981578;28;889;-81
2024/03/15 11:55:38;;;;;;;;;;;;;;;21.70;27.68;98012.69;4963138;29;993;-82
2024/03/15 11:58:04;;;;;;;;;;;;;;;21.73;27.57;98017.47;4962362;29;942;-80
2024/03/15 12:00:30;;;;;;;;;;;;;;;22.07;27.14;98018.97;4962587;29;856;-81
2024/03/15 12:02:56;;;;;;;;;;;;;;;21.87;27.61;98018.34;4962808;29;1919;-81
2024/03/15 12:05:22;;;;;;;;;;;;;;;21.50;27.93;98015.66;4962752;29;898;-81
2024/03/15 12:07:47;;;;;;;;;;;;;;;21.33;27.98;98020.50;4962725;29;1102;-81
2024/03/15 12:10:14;;;;;;;;;;;;;;;21.23;28.23;98023.59;4962677;29;906;-81
2024/03/15 12:12:49;;;;;;;;;;;;;;;21.65;28.00;98016.06;5013906;28;1298;-82
2024/03/15 12:15:28;;;;;;;;;;;;;;;21.81;27.52;98024.53;5004761;28;1112;-81
2024/03/15 12:17:57;;;;;;;;;;;;;;;21.99;27.17;98023.25;5004579;28;1003;-82
2024/03/15 12:20:23;;;;;;;;;;;;;;;21.71;27.61;98019.97;5004881;28;964;-81
2024/03/15 12:22:48;;;;;;;;;;;;;;;21.38;28.29;98032.56;5004406;28;1961;-81
2024/03/15 12:25:14;;;;;;;;;;;;;;;21.25;28.25;98027.56;5004711;28;1194;-82
2024/03/15 12:27:41;;;;;;;;;;;;;;;21.47;28.00;98027.06;5020392;28;1057;-81
2024/03/15 12:30:09;;;;;;;;;;;;;;;21.95;27.45;98028.22;5023048;28;771;-81
2024/03/15 12:32:35;;;;;;;;;;;;;;;21.98;27.53;98033.78;5006364;28;741;-82
2024/03/15 12:35:04;;;;;;;;;;;;;;;21.91;27.65;98028.31;5022292;28;988;-82
2024/03/15 12:37:33;;;;;;;;;;;;;;;21.90;27.56;98034.41;5022908;28;882;-81
2024/03/15 12:39:58;;;;;;;;;;;;;;;21.37;28.29;98037.41;5022922;28;873;-81
2024/03/15 12:42:25;;;;;;;;;;;;;;;21.74;27.72;98036.03;5004675;28;1979;-81
2024/03/15 12:44:51;;;;;;;;;;;;;;;21.97;27.44;98037.06;5021247;28;876;-81
2024/03/15 12:47:16;;;;;;;;;;;;;;;22.02;27.50;98033.66;5022154;28;912;-81
2024/03/15 12:49:42;;;;;;;;;;;;;;;21.99;27.49;98028.91;5004638;28;981;-81
2024/03/15 12:52:09;;;;;;;;;;;;;;;21.45;27.99;98029.53;5022266;28;1204;-81
2024/03/15 12:54:34;;;;;;;;;;;;;;;21.44;28.17;98044.91;5005262;28;821;-81
2024/03/15 12:57:02;;;;;;;;;;;;;;;21.21;28.18;98031.72;5005540;28;1302;-81
2024/03/15 12:59:28;;;;;;;;;;;;;;;21.92;27.60;98035.59;5000614;28;945;-82
2024/03/15 13:01:53;;;;;;;;;;;;;;;22.04;27.50;98029.16;5001179;28;957;-82
2024/03/15 13:04:20;;;;;;;;;;;;;;;22.14;27.08;98035.81;4983855;28;1981;-81
2024/03/15 13:06:45;;;;;;;;;;;;;;;21.92;27.53;98029.91;4968165;28;852;-81